Time;durP1;ratioP1;P1;durP2;ratioP2;P2;SDS_P1;SDS_P2;PMS_P1;PMS_P2;Temp;Humidity;BMP_temperature;BMP_pressure;BME280_temperature;BME280_humidity;BME280_pressure;Samples;Min_cycle;Max_cycle;Signal;HPM_P1;HPM_P2
2021/11/09 00:01:31;;;;;;;19.98;7.13;;;;;;;;;;10356426;28;20052;-80
2021/11/09 00:06:37;;;;;;;19.58;8.18;;;;;;;;;;10341492;28;20053;-80
2021/11/09 00:11:38;;;;;;;28.90;7.57;;;;;;;;;;10342498;28;20034;-80
2021/11/09 00:16:38;;;;;;;20.27;8.45;;;;;;;;;;10339926;28;20050;-80
2021/11/09 00:21:38;;;;;;;12.45;6.95;;;;;;;;;;10341019;28;20050;-80
2021/11/09 00:26:38;;;;;;;20.75;8.02;;;;;;;;;;10355377;28;20025;-80
2021/11/09 00:31:39;;;;;;;34.47;10.05;;;;;;;;;;10340303;28;20126;-80
2021/11/09 00:36:39;;;;;;;21.05;8.50;;;;;;;;;;10355457;28;20117;-79
2021/11/09 00:41:39;;;;;;;42.28;10.80;;;;;;;;;;10338299;28;20469;-80
2021/11/09 00:46:40;;;;;;;41.47;10.68;;;;;;;;;;10339886;28;20225;-80
2021/11/09 00:51:40;;;;;;;41.75;10.27;;;;;;;;;;10339677;28;20121;-80
2021/11/09 00:56:40;;;;;;;12.88;7.57;;;;;;;;;;10339588;28;20034;-80
2021/11/09 01:01:40;;;;;;;19.27;8.73;;;;;;;;;;10339293;28;20073;-80
2021/11/09 01:06:41;;;;;;;16.10;9.23;;;;;;;;;;10354369;28;20057;-80
2021/11/09 01:11:41;;;;;;;27.88;9.65;;;;;;;;;;10354186;28;20037;-80
2021/11/09 01:16:42;;;;;;;31.33;8.38;;;;;;;;;;10339167;28;20062;-80
2021/11/09 01:21:43;;;;;;;21.88;10.93;;;;;;;;;;10352801;28;20435;-80
2021/11/09 01:26:45;;;;;;;33.40;10.55;;;;;;;;;;10337260;28;20033;-80
2021/11/09 01:31:45;;;;;;;30.65;12.02;;;;;;;;;;10352918;28;20034;-80
2021/11/09 01:36:45;;;;;;;22.55;10.20;;;;;;;;;;10353059;28;20483;-80
2021/11/09 01:41:46;;;;;;;37.30;10.80;;;;;;;;;;10337352;28;20034;-80
2021/11/09 01:46:46;;;;;;;13.93;9.95;;;;;;;;;;10352850;28;20031;-80
2021/11/09 01:51:46;;;;;;;9.95;8.82;;;;;;;;;;10352654;28;20598;-80
2021/11/09 01:56:47;;;;;;;23.90;10.60;;;;;;;;;;10337570;28;20042;-80
2021/11/09 02:01:48;;;;;;;35.53;10.23;;;;;;;;;;10336566;28;20030;-80
2021/11/09 02:06:48;;;;;;;35.53;12.20;;;;;;;;;;10335650;28;20018;-80
2021/11/09 02:11:49;;;;;;;22.83;11.02;;;;;;;;;;10336240;28;20101;-80
2021/11/09 02:16:49;;;;;;;24.60;10.20;;;;;;;;;;10336454;28;20072;-80
2021/11/09 02:21:49;;;;;;;27.67;10.50;;;;;;;;;;10335733;28;20085;-80
2021/11/09 02:26:50;;;;;;;21.73;9.90;;;;;;;;;;10351394;28;20030;-80
2021/11/09 02:31:51;;;;;;;14.68;10.57;;;;;;;;;;10336158;28;20384;-80
2021/11/09 02:36:52;;;;;;;28.42;11.93;;;;;;;;;;10350782;28;20027;-80
2021/11/09 02:41:52;;;;;;;32.10;11.57;;;;;;;;;;10351379;28;20034;-80
2021/11/09 02:46:59;;;;;;;29.70;12.32;;;;;;;;;;10351296;28;20104;-80
2021/11/09 02:52:03;;;;;;;;;;;;;;;;;;10335861;28;20030;-80
2021/11/09 02:57:06;;;;;;;32.25;13.80;;;;;;;;;;10335478;28;19964;-80
2021/11/09 03:12:42;;;;;;;27.70;11.95;;;;;;;;;;10348714;28;20069;-80
2021/11/09 03:17:51;;;;;;;33.80;13.88;;;;;;;;;;10334345;28;20065;-80
2021/11/09 03:49:27;;;;;;;24.50;13.18;;;;;;;;;;10333606;28;20034;-80
2021/11/09 03:54:28;;;;;;;38.08;16.00;;;;;;;;;;10334405;28;20026;-81
2021/11/09 04:04:40;;;;;;;20.67;15.73;;;;;;;;;;10333874;28;20037;-81
2021/11/09 04:25:49;;;;;;;35.83;19.17;;;;;;;;;;10353633;28;20030;-80
2021/11/09 04:31:03;;;;;;;39.42;21.52;;;;;;;;;;10340734;28;20026;-80
2021/11/09 05:02:34;;;;;;;50.03;23.08;;;;;;;;;;10339703;28;20034;-80
2021/11/09 05:13:01;;;;;;;27.47;16.90;;;;;;;;;;10337850;28;20053;-81
2021/11/09 05:18:02;;;;;;;34.88;18.77;;;;;;;;;;10338727;28;20133;-80
2021/11/09 05:23:02;;;;;;;33.40;16.45;;;;;;;;;;10338493;28;20383;-80
2021/11/09 05:28:05;;;;;;;43.10;20.13;;;;;;;;;;10338927;28;20026;-80
2021/11/09 05:33:06;;;;;;;35.83;17.48;;;;;;;;;;10356957;28;20035;-79
2021/11/09 05:38:08;;;;;;;40.13;15.95;;;;;;;;;;10373297;28;20022;-78
2021/11/09 05:43:08;;;;;;;45.45;16.38;;;;;;;;;;10375374;28;20041;-80
2021/11/09 05:48:08;;;;;;;40.50;15.27;;;;;;;;;;10340137;28;20014;-80
2021/11/09 05:53:09;;;;;;;35.58;16.20;;;;;;;;;;10342291;28;20022;-81
2021/11/09 05:58:09;;;;;;;29.70;14.45;;;;;;;;;;10340018;28;20031;-80
2021/11/09 06:03:09;;;;;;;36.95;15.77;;;;;;;;;;10352273;28;20045;-80
2021/11/09 06:08:09;;;;;;;36.03;15.80;;;;;;;;;;10354086;28;20101;-80
2021/11/09 06:13:09;;;;;;;49.17;19.75;;;;;;;;;;10351504;28;20045;-84
2021/11/09 06:18:10;;;;;;;36.70;16.92;;;;;;;;;;10353116;28;20054;-82
2021/11/09 06:23:10;;;;;;;38.63;17.95;;;;;;;;;;10351683;28;20022;-81
2021/11/09 06:28:14;;;;;;;30.38;16.17;;;;;;;;;;10337181;28;20026;-81
2021/11/09 06:33:15;;;;;;;45.15;20.00;;;;;;;;;;10335785;28;20499;-81
2021/11/09 06:38:15;;;;;;;39.20;16.33;;;;;;;;;;10335661;28;20066;-81
2021/11/09 06:43:16;;;;;;;43.78;19.95;;;;;;;;;;10351231;28;20034;-81
2021/11/09 06:48:18;;;;;;;56.20;21.10;;;;;;;;;;10335180;28;20109;-81
2021/11/09 06:53:18;;;;;;;46.08;21.00;;;;;;;;;;10350773;28;20364;-81
2021/11/09 06:58:18;;;;;;;57.17;20.90;;;;;;;;;;10350586;28;20109;-81
2021/11/09 07:03:19;;;;;;;55.83;21.48;;;;;;;;;;10335226;28;20478;-81
2021/11/09 07:08:19;;;;;;;46.08;20.83;;;;;;;;;;10350931;28;20026;-80
2021/11/09 07:13:19;;;;;;;43.92;24.08;;;;;;;;;;10334779;28;20122;-81
2021/11/09 07:18:20;;;;;;;69.45;25.08;;;;;;;;;;10334549;28;20523;-81
2021/11/09 07:23:20;;;;;;;61.25;24.33;;;;;;;;;;10334297;28;20077;-81
2021/11/09 07:28:20;;;;;;;48.00;24.85;;;;;;;;;;10334424;28;20037;-81
2021/11/09 07:33:21;;;;;;;63.03;22.33;;;;;;;;;;10349113;28;20026;-81
2021/11/09 07:38:21;;;;;;;50.40;22.60;;;;;;;;;;10332331;28;20026;-81
2021/11/09 07:43:23;;;;;;;45.50;21.00;;;;;;;;;;10349255;28;20053;-81
2021/11/09 07:48:23;;;;;;;43.72;21.30;;;;;;;;;;10349307;28;20665;-80
2021/11/09 07:53:29;;;;;;;39.63;20.55;;;;;;;;;;10337606;28;20058;-80
2021/11/09 07:58:33;;;;;;;47.53;22.10;;;;;;;;;;10352308;28;20030;-81
2021/11/09 08:03:46;;;;;;;50.90;22.67;;;;;;;;;;10340022;28;20061;-81
2021/11/09 08:13:53;;;;;;;37.93;18.30;;;;;;;;;;10356284;28;20026;-81
2021/11/09 08:18:53;;;;;;;34.13;16.33;;;;;;;;;;10340853;28;20280;-80
2021/11/09 08:23:54;;;;;;;41.42;17.33;;;;;;;;;;10358130;28;20037;-81
2021/11/09 08:28:54;;;;;;;46.60;20.25;;;;;;;;;;10356741;28;20057;-80
2021/11/09 08:33:55;;;;;;;37.60;19.20;;;;;;;;;;10355696;28;20031;-80
2021/11/09 08:38:56;;;;;;;57.03;21.48;;;;;;;;;;10341049;28;20152;-80
2021/11/09 08:44:11;;;;;;;30.67;18.73;;;;;;;;;;10356641;28;20034;-81
2021/11/09 08:49:14;;;;;;;46.60;17.80;;;;;;;;;;10354069;28;20041;-80
2021/11/09 08:54:21;;;;;;;44.10;17.48;;;;;;;;;;10362716;28;20077;-81
2021/11/09 09:04:40;;;;;;;44.83;17.90;;;;;;;;;;10342280;28;20515;-80
2021/11/09 09:09:41;;;;;;;35.53;18.03;;;;;;;;;;10340759;28;20116;-80
2021/11/09 09:14:41;;;;;;;38.92;18.63;;;;;;;;;;10340938;28;20339;-80
2021/11/09 09:19:46;;;;;;;31.02;13.82;;;;;;;;;;10342305;28;20066;-80
2021/11/09 09:25:00;;;;;;;26.77;13.50;;;;;;;;;;10341071;28;20121;-80
2021/11/09 09:30:15;;;;;;;30.08;12.68;;;;;;;;;;10352222;28;20027;-80
2021/11/09 09:56:41;;;;;;;35.22;15.70;;;;;;;;;;10342825;28;20030;-80
2021/11/09 10:01:45;;;;;;;33.67;15.45;;;;;;;;;;10356396;28;20033;-78
2021/11/09 10:06:46;;;;;;;37.25;16.48;;;;;;;;;;10337528;28;20023;-79
2021/11/09 10:11:47;;;;;;;29.35;14.50;;;;;;;;;;10353048;28;20080;-79
2021/11/09 10:16:47;;;;;;;41.92;12.85;;;;;;;;;;10352286;28;20046;-80
2021/11/09 10:21:48;;;;;;;30.25;14.10;;;;;;;;;;10352071;28;20097;-80
2021/11/09 10:26:48;;;;;;;36.00;13.50;;;;;;;;;;10337222;28;20026;-79
2021/11/09 10:31:48;;;;;;;23.92;14.15;;;;;;;;;;10338039;28;20041;-79
2021/11/09 10:36:50;;;;;;;34.17;14.95;;;;;;;;;;10352609;28;20041;-80
2021/11/09 10:42:09;;;;;;;30.95;13.98;;;;;;;;;;10359548;28;20066;-79
2021/11/09 10:47:23;;;;;;;34.83;15.90;;;;;;;;;;10335516;28;20368;-79
2021/11/09 10:52:27;;;;;;;29.98;13.30;;;;;;;;;;10335488;28;20034;-79
2021/11/09 10:57:55;;;;;;;38.17;16.45;;;;;;;;;;10350448;28;20030;-79
2021/11/09 11:08:14;;;;;;;41.88;14.30;;;;;;;;;;10335208;28;20031;-79
2021/11/09 11:13:18;;;;;;;37.08;16.02;;;;;;;;;;10334478;28;20038;-80
2021/11/09 11:18:28;;;;;;;31.52;15.02;;;;;;;;;;10350049;28;20427;-79
2021/11/09 11:23:28;;;;;;;32.53;16.70;;;;;;;;;;10333341;28;20022;-79
2021/11/09 11:28:29;;;;;;;46.33;15.45;;;;;;;;;;10350728;28;20037;-79
2021/11/09 11:33:29;;;;;;;32.85;13.52;;;;;;;;;;10348496;28;20109;-80
2021/11/09 11:38:29;;;;;;;43.00;16.48;;;;;;;;;;10332522;28;20041;-79
2021/11/09 11:43:42;;;;;;;36.58;16.73;;;;;;;;;;10349916;28;20125;-79
2021/11/09 11:48:51;;;;;;;55.05;17.85;;;;;;;;;;10334701;28;20472;-79
2021/11/09 11:53:55;;;;;;;36.45;16.17;;;;;;;;;;10334072;28;20030;-79
2021/11/09 11:58:56;;;;;;;37.10;15.77;;;;;;;;;;10349538;28;20031;-79
2021/11/09 12:03:56;;;;;;;39.13;15.48;;;;;;;;;;10337301;28;20027;-79
2021/11/09 12:08:56;;;;;;;46.25;19.15;;;;;;;;;;10357246;28;20105;-79
2021/11/09 12:13:57;;;;;;;33.17;16.52;;;;;;;;;;10356925;28;20030;-79
2021/11/09 12:18:57;;;;;;;44.40;16.17;;;;;;;;;;10335412;28;20054;-79
2021/11/09 12:24:10;;;;;;;41.15;17.20;;;;;;;;;;10349353;28;20109;-80
2021/11/09 12:29:30;;;;;;;27.52;16.00;;;;;;;;;;10335508;28;20030;-79
2021/11/09 12:34:48;;;;;;;26.25;15.75;;;;;;;;;;10335396;28;20031;-80
2021/11/09 12:39:49;;;;;;;47.22;17.63;;;;;;;;;;10332084;28;20076;-78
2021/11/09 12:44:49;;;;;;;24.73;16.40;;;;;;;;;;10337805;28;20432;-80
2021/11/09 12:49:52;;;;;;;41.75;19.30;;;;;;;;;;10343119;28;20164;-79
2021/11/09 12:54:53;;;;;;;33.40;17.75;;;;;;;;;;10358306;28;20045;-80
2021/11/09 12:59:57;;;;;;;26.50;17.30;;;;;;;;;;10358348;28;20031;-79
2021/11/09 13:05:30;;;;;;;32.38;18.48;;;;;;;;;;10347920;28;20046;-77
2021/11/09 13:10:26;;;;;;;34.23;17.23;;;;;;;;;;10367937;28;20053;-77
2021/11/09 13:15:27;;;;;;;40.42;18.95;;;;;;;;;;10382730;28;20036;-77
2021/11/09 13:25:32;;;;;;;48.30;21.38;;;;;;;;;;10354664;28;20030;-79
2021/11/09 13:30:33;;;;;;;43.38;21.63;;;;;;;;;;10337677;28;20038;-79
2021/11/09 13:35:34;;;;;;;51.38;21.92;;;;;;;;;;10353982;28;20101;-80
2021/11/09 13:40:37;;;;;;;55.40;22.63;;;;;;;;;;10337640;28;20096;-79
2021/11/09 13:45:38;;;;;;;64.65;20.65;;;;;;;;;;10338289;28;20109;-79
2021/11/09 13:50:39;;;;;;;44.08;23.17;;;;;;;;;;10352675;28;20045;-79
2021/11/09 13:55:40;;;;;;;53.08;23.15;;;;;;;;;;10351624;28;20027;-79
2021/11/09 14:00:45;;;;;;;44.60;20.83;;;;;;;;;;10351890;28;20034;-79
2021/11/09 14:16:40;;;;;;;39.50;21.63;;;;;;;;;;10336068;28;20484;-79
2021/11/09 14:21:42;;;;;;;43.70;20.73;;;;;;;;;;10350552;28;20050;-80
2021/11/09 14:26:43;;;;;;;31.92;17.65;;;;;;;;;;10336853;28;20014;-80
2021/11/09 14:31:53;;;;;;;45.45;20.10;;;;;;;;;;10350970;28;20038;-79
2021/11/09 14:37:04;;;;;;;61.45;22.45;;;;;;;;;;10350666;28;20026;-79
2021/11/09 14:42:15;;;;;;;35.67;18.33;;;;;;;;;;10350210;28;20038;-80
2021/11/09 14:47:19;;;;;;;21.95;17.13;;;;;;;;;;10334728;28;20384;-80
2021/11/09 14:52:22;;;;;;;40.88;18.58;;;;;;;;;;10335109;28;20027;-79
2021/11/09 14:57:31;;;;;;;33.67;19.10;;;;;;;;;;10334763;28;20030;-79
2021/11/09 15:02:32;;;;;;;50.20;19.17;;;;;;;;;;10351734;28;20037;-79
2021/11/09 15:07:39;;;;;;;60.42;21.98;;;;;;;;;;10350001;28;20050;-79
2021/11/09 15:13:10;;;;;;;54.22;20.55;;;;;;;;;;10335857;28;20034;-80
2021/11/09 15:33:50;;;;;;;51.60;19.83;;;;;;;;;;10333447;28;20415;-79
2021/11/09 15:38:51;;;;;;;44.60;18.60;;;;;;;;;;10346349;28;20031;-79
2021/11/09 15:43:51;;;;;;;39.50;17.75;;;;;;;;;;10349025;28;20061;-80
2021/11/09 15:48:51;;;;;;;38.35;15.65;;;;;;;;;;10348827;28;20472;-79
2021/11/09 15:53:51;;;;;;;22.58;14.85;;;;;;;;;;10349403;28;20113;-80
2021/11/09 15:58:54;;;;;;;32.13;15.80;;;;;;;;;;10332196;28;20030;-80
2021/11/09 16:03:54;;;;;;;28.77;12.80;;;;;;;;;;10331781;28;20048;-80
2021/11/09 16:08:55;;;;;;;29.77;12.80;;;;;;;;;;10332017;28;20114;-80
2021/11/09 16:13:55;;;;;;;34.38;11.63;;;;;;;;;;10334359;28;20030;-79
2021/11/09 16:18:56;;;;;;;20.55;9.32;;;;;;;;;;10335665;28;20066;-80
2021/11/09 16:23:56;;;;;;;25.80;9.00;;;;;;;;;;10340429;28;20121;-80
2021/11/09 16:28:56;;;;;;;19.63;8.27;;;;;;;;;;10356283;28;20023;-79
2021/11/09 16:33:58;;;;;;;22.17;9.48;;;;;;;;;;10341483;28;20037;-79
2021/11/09 16:39:02;;;;;;;24.90;7.95;;;;;;;;;;10339910;28;20054;-79
2021/11/09 16:44:06;;;;;;;27.77;12.85;;;;;;;;;;10340746;28;20049;-79
2021/11/09 16:54:32;;;;;;;29.85;9.02;;;;;;;;;;10352308;28;20030;-79
2021/11/09 16:59:54;;;;;;;;;;;;;;;;;;10341697;28;20030;-80
2021/11/09 18:23:56;;;;;;;21.80;10.05;;;;;;;;;;10336493;28;20433;-80
2021/11/09 18:28:56;;;;;;;27.48;10.63;;;;;;;;;;10334880;28;20027;-80
2021/11/09 18:33:56;;;;;;;22.85;9.50;;;;;;;;;;10351218;28;20392;-79
2021/11/09 18:38:57;;;;;;;20.95;11.40;;;;;;;;;;10336114;28;20125;-80
2021/11/09 18:43:57;;;;;;;23.70;10.82;;;;;;;;;;10334979;28;20046;-80
2021/11/09 18:48:59;;;;;;;25.80;11.38;;;;;;;;;;10335637;28;20034;-80
2021/11/09 18:54:00;;;;;;;27.13;10.98;;;;;;;;;;10335478;28;20041;-80
2021/11/09 18:59:00;;;;;;;35.90;13.13;;;;;;;;;;10336669;28;20049;-79
2021/11/09 19:04:00;;;;;;;22.05;9.70;;;;;;;;;;10350010;28;20268;-80
2021/11/09 19:09:01;;;;;;;45.05;13.85;;;;;;;;;;10334872;28;20030;-80
2021/11/09 19:14:01;;;;;;;19.67;10.35;;;;;;;;;;10351234;28;20041;-79
2021/11/09 19:19:01;;;;;;;26.05;13.45;;;;;;;;;;10333983;28;20069;-80
2021/11/09 19:24:02;;;;;;;23.00;13.70;;;;;;;;;;10335160;28;20022;-79
2021/11/09 19:29:02;;;;;;;31.27;15.05;;;;;;;;;;10353552;28;20042;-80
2021/11/09 19:34:02;;;;;;;29.95;15.13;;;;;;;;;;10351996;28;20026;-80
2021/11/09 19:39:03;;;;;;;51.35;17.90;;;;;;;;;;10354755;28;20031;-80
2021/11/09 19:44:07;;;;;;;37.42;16.52;;;;;;;;;;10353246;28;20124;-80
2021/11/09 19:49:09;;;;;;;35.35;16.45;;;;;;;;;;10337211;28;20054;-80
2021/11/09 19:54:11;;;;;;;35.30;16.60;;;;;;;;;;10338484;28;20033;-80
2021/11/09 19:59:13;;;;;;;38.30;17.92;;;;;;;;;;10360148;28;20042;-79
2021/11/09 20:04:16;;;;;;;32.88;17.95;;;;;;;;;;10341566;28;20026;-79
2021/11/09 20:09:19;;;;;;;37.30;21.13;;;;;;;;;;10343422;28;20112;-79
2021/11/09 20:14:30;;;;;;;44.15;24.65;;;;;;;;;;10357657;28;20081;-80
2021/11/09 20:19:31;;;;;;;33.20;20.20;;;;;;;;;;10342792;28;20507;-79
2021/11/09 20:24:31;;;;;;;41.80;21.43;;;;;;;;;;10345376;28;20022;-78
2021/11/09 20:29:32;;;;;;;48.38;20.33;;;;;;;;;;10357703;28;20264;-77
2021/11/09 20:34:32;;;;;;;45.33;22.60;;;;;;;;;;10356281;28;20038;-79
2021/11/09 20:39:32;;;;;;;32.75;20.50;;;;;;;;;;10358555;28;20027;-79
2021/11/09 20:44:32;;;;;;;33.28;20.02;;;;;;;;;;10342571;28;20499;-78
2021/11/09 20:49:33;;;;;;;38.40;21.33;;;;;;;;;;10340027;28;20037;-78
2021/11/09 20:54:33;;;;;;;41.33;21.30;;;;;;;;;;10355938;28;20030;-78
2021/11/09 20:59:33;;;;;;;45.65;23.20;;;;;;;;;;10356140;28;20109;-78
2021/11/09 21:04:34;;;;;;;46.55;23.92;;;;;;;;;;10340062;28;20062;-79
2021/11/09 21:09:34;;;;;;;37.30;22.55;;;;;;;;;;10356104;28;20027;-78
2021/11/09 21:19:53;;;;;;;54.78;24.50;;;;;;;;;;10341792;28;20416;-78
2021/11/09 21:24:53;;;;;;;45.50;22.75;;;;;;;;;;10358250;28;20026;-78
2021/11/09 21:30:10;;;;;;;33.67;21.50;;;;;;;;;;10356339;28;20505;-78
2021/11/09 21:35:11;;;;;;;40.58;21.05;;;;;;;;;;10340665;28;20463;-78
2021/11/09 21:40:12;;;;;;;36.83;20.83;;;;;;;;;;10342088;28;20034;-79
2021/11/09 21:45:12;;;;;;;36.03;16.92;;;;;;;;;;10355903;28;20544;-79
2021/11/09 21:50:13;;;;;;;31.77;18.10;;;;;;;;;;10355373;28;20030;-78
2021/11/09 21:55:14;;;;;;;28.52;17.48;;;;;;;;;;10339856;28;20038;-79
2021/11/09 22:00:14;;;;;;;43.88;17.30;;;;;;;;;;10354147;28;20030;-79
2021/11/09 22:05:15;;;;;;;45.63;18.45;;;;;;;;;;10336811;28;20380;-79
2021/11/09 22:10:15;;;;;;;45.90;22.13;;;;;;;;;;10336990;28;20039;-79
2021/11/09 22:15:17;;;;;;;32.88;18.00;;;;;;;;;;10351856;28;20089;-79
2021/11/09 22:20:17;;;;;;;31.85;16.65;;;;;;;;;;10350881;28;20137;-79
2021/11/09 22:25:18;;;;;;;28.17;16.38;;;;;;;;;;10336860;28;20113;-79
2021/11/09 22:30:18;;;;;;;33.80;15.90;;;;;;;;;;10335270;28;20022;-79
2021/11/09 22:35:19;;;;;;;32.55;17.42;;;;;;;;;;10336304;28;20038;-79
2021/11/09 22:40:19;;;;;;;32.80;16.10;;;;;;;;;;10335697;28;20026;-79
2021/11/09 22:45:19;;;;;;;32.67;16.63;;;;;;;;;;10335818;28;20022;-79
2021/11/09 22:50:20;;;;;;;31.70;14.48;;;;;;;;;;10335511;28;20036;-79
2021/11/09 22:55:21;;;;;;;29.85;15.15;;;;;;;;;;10333985;28;20465;-79
2021/11/09 23:00:28;;;;;;;42.08;15.90;;;;;;;;;;10335984;28;20105;-79
2021/11/09 23:05:28;;;;;;;29.33;14.23;;;;;;;;;;10350663;28;20037;-79
2021/11/09 23:10:28;;;;;;;46.35;14.75;;;;;;;;;;10333698;28;20030;-79
2021/11/09 23:15:29;;;;;;;33.42;11.65;;;;;;;;;;10333372;28;20030;-81
2021/11/09 23:20:30;;;;;;;32.95;14.00;;;;;;;;;;10335559;28;20136;-79
2021/11/09 23:25:30;;;;;;;26.33;10.68;;;;;;;;;;10335039;28;20085;-79
2021/11/09 23:30:30;;;;;;;25.40;12.05;;;;;;;;;;10348949;28;20065;-78
2021/11/09 23:35:30;;;;;;;23.73;10.88;;;;;;;;;;10350000;28;20507;-79
2021/11/09 23:40:31;;;;;;;28.08;12.77;;;;;;;;;;10334005;28;20352;-79
2021/11/09 23:45:31;;;;;;;33.67;13.90;;;;;;;;;;10334083;28;20046;-80
2021/11/09 23:50:31;;;;;;;46.53;14.90;;;;;;;;;;10333565;28;20026;-79
2021/11/09 23:55:32;;;;;;;46.55;18.90;;;;;;;;;;10334473;28;20283;-79
